FW7016 Weather Reports


Display with metric or nautical units.
time (UTC)temp
F
wind
direction
speed
MPH
gust
MPH
rain 1hr
in
rain 24hr
in
rain mn
in
humidity
%
barometer
mb
20240229105108 36 245 9.0 11.0 0.00 0.00 0.00 34 1015.8
20240229104606 35 244 9.0 11.0 0.00 0.00 0.00 36 1015.7
20240229104104 35 253 6.0 9.0 0.00 0.00 0.00 39 1015.7
20240229103604 37 228 8.0 11.0 0.00 0.00 0.00 33 1015.7
20240229103102 37 239 8.0 13.0 0.00 0.00 0.00 32 1016.1
20240229102601 37 240 6.0 8.0 0.00 0.00 0.00 33 1016.0
20240229102100 37 251 6.0 8.0 0.00 0.00 0.00 34 1016.0
20240229101600 38 274 9.0 11.0 0.00 0.00 0.00 32 1016.0
20240229101058 37 242 8.0 10.0 0.00 0.00 0.00 33 1016.1
20240229100558 36 243 7.0 14.0 0.00 0.00 0.00 34 1016.1
20240229100057 35 237 7.0 8.0 0.00 0.00 0.00 36 1016.1
20240229095554 35 262 5.0 6.0 0.00 0.00 0.00 36 1016.1
20240229095053 36 244 7.0 9.0 0.00 0.00 0.00 39 1016.0
20240229094550 37 268 6.0 11.0 0.00 0.00 0.00 34 1016.1
20240229094050 37 252 9.0 11.0 0.00 0.00 0.00 33 1016.1
20240229093549 35 226 7.0 9.0 0.00 0.00 0.00 37 1016.6
20240229093047 35 245 6.0 7.0 0.00 0.00 0.00 40 1016.2
20240229092543 36 229 5.0 8.0 0.00 0.00 0.00 37 1016.6
20240229092042 35 236 5.0 8.0 0.00 0.00 0.00 36 1016.6
20240229091539 33 235 5.0 8.0 0.00 0.00 0.00 40 1016.9
20240229091039 33 239 5.0 7.0 0.00 0.00 0.00 41 1016.4
20240229090539 32 243 5.0 7.0 0.00 0.00 0.00 43 1016.7
20240229090039 30 246 6.0 7.0 0.00 0.00 0.00 49 1016.8
20240229085538 30 231 6.0 7.0 0.00 0.00 0.00 51 1016.7
20240229085039 29 231 6.0 7.0 0.00 0.00 0.00 52 1017.0
20240229084538 28 229 5.0 6.0 0.00 0.00 0.00 55 1016.9
20240229084037 27 228 6.0 7.0 0.00 0.00 0.00 58 1017.1
20240229083536 27 221 4.0 6.0 0.00 0.00 0.00 63 1017.0
20240229083035 28 237 6.0 8.0 0.00 0.00 0.00 58 1017.0
20240229082535 30 226 6.0 8.0 0.00 0.00 0.00 55 1017.0
20240229082035 29 234 5.0 18.0 0.00 0.00 0.00 49 1017.3
20240229081535 28 238 5.0 6.0 0.00 0.00 0.00 59 1017.4
20240229081033 28 227 5.0 6.0 0.00 0.00 0.00 58 1017.5
20240229080531 28 232 4.0 6.0 0.00 0.00 0.00 57 1017.5
20240229080029 27 250 6.0 7.0 0.00 0.00 0.00 58 1017.4
20240229075528 26 220 3.0 3.0 0.00 0.00 0.00 61 1017.4
20240229075027 26 212 2.0 3.0 0.00 0.00 0.00 63 1017.1
20240229074527 26 221 4.0 5.0 0.00 0.00 0.00 63 1017.3
20240229074027 26 215 3.0 5.0 0.00 0.00 0.00 64 1017.3
20240229073526 26 204 3.0 6.0 0.00 0.00 0.00 64 1017.4
20240229073025 26 210 3.0 6.0 0.00 0.00 0.00 64 1017.4
20240229072523 27 214 3.0 6.0 0.00 0.00 0.00 64 1017.5
20240229072022 28 235 6.0 7.0 0.00 0.00 0.00 58 1017.1
20240229071520 28 226 5.0 7.0 0.00 0.00 0.00 57 1017.5
20240229071019 28 228 4.0 6.0 0.00 0.00 0.00 58 1017.4
20240229070519 28 210 4.0 5.0 0.00 0.00 0.00 55 1017.4
20240229070018 27 203 3.0 5.0 0.00 0.00 0.00 61 1017.4
20240229065516 26 203 3.0 3.0 0.00 0.00 0.00 60 1017.4
20240229065016 26 221 4.0 5.0 0.00 0.00 0.00 63 1017.6
20240229064515 26 219 4.0 5.0 0.00 0.00 0.00 64 1017.5
20240229064015 28 221 5.0 6.0 0.00 0.00 0.00 58 1017.3
20240229063513 29 226 6.0 6.0 0.00 0.00 0.00 55 1017.4
20240229063013 29 208 3.0 3.0 0.00 0.00 0.00 59 1017.6
20240229062513 29 209 2.0 2.0 0.00 0.00 0.00 50 1017.6
20240229062013 29 197 0.0 2.0 0.00 0.00 0.00 57 1017.6
20240229061512 28 210 2.0 3.0 0.00 0.00 0.00 55 1017.9
20240229061011 28 220 2.0 3.0 0.00 0.00 0.00 57 1017.9
20240229060510 28 211 1.0 1.0 0.00 0.00 0.00 58 1018.0
20240229060009 29 201 2.0 3.0 0.00 0.00 0.00 54 1017.9
20240229055508 27 234 4.0 5.0 0.00 0.00 0.00 56 1017.7
20240229055008 29 228 3.0 3.0 0.00 0.00 0.00 60 1018.0
20240229054509 31 202 1.0 2.0 0.00 0.00 0.00 44 1017.9
20240229054007 30 217 1.0 2.0 0.00 0.00 0.00 48 1018.1
20240229053506 30 255 2.0 5.0 0.00 0.00 0.00 48 1018.1
20240229053004 28 206 1.0 2.0 0.00 0.00 0.00 55 1018.2
20240229052501 30 208 1.0 1.0 0.00 0.00 0.00 55 1018.2
20240229051959 29 204 0.0 0.0 0.00 0.00 0.00 48 1018.1
20240229051458 29 204 1.0 1.0 0.00 0.00 0.00 50 1018.4
20240229050956 29 204 0.0 0.0 0.00 0.00 0.00 53 1018.3
20240229050456 31 216 2.0 2.0 0.00 0.00 0.00 51 1018.2
20240229045955 31 135 1.0 2.0 0.00 0.00 0.00 41 1018.3
20240229045455 28 138 4.0 5.0 0.00 0.00 0.00 59 1018.4
20240229044954 30 168 2.0 3.0 0.00 0.00 0.00 53 1018.4
20240229044453 30 188 0.0 1.0 0.00 0.00 0.00 50 1018.3
20240229043952 28 112 2.0 2.0 0.00 0.00 0.00 52 1018.2
20240229043451 31 148 1.0 2.0 0.00 0.00 0.00 52 1018.3
20240229042952 30 143 0.0 2.0 0.00 0.00 0.00 48 1018.4
20240229042450 29 150 0.0 2.0 0.00 0.00 0.00 50 1018.4
20240229041949 31 63 3.0 5.0 0.00 0.00 0.00 55 1018.3
20240229041447 32 199 0.0 0.0 0.00 0.00 0.00 44 1018.6
20240229040945 30 213 1.0 2.0 0.00 0.00 0.00 47 1018.4
20240229040444 31 228 3.0 5.0 0.00 0.00 0.00 54 1018.3
20240229035943 31 222 3.0 5.0 0.00 0.00 0.00 49 1018.4
20240229035442 32 223 3.0 5.0 0.00 0.00 0.00 50 1018.3
20240229034941 30 234 5.0 5.0 0.00 0.00 0.00 49 1018.2
20240229034442 32 207 1.0 2.0 0.00 0.00 0.00 48 1018.4
20240229033940 32 196 1.0 1.0 0.00 0.00 0.00 48 1018.6
20240229033438 30 238 3.0 3.0 0.00 0.00 0.00 47 1018.6
20240229032937 30 212 1.0 2.0 0.00 0.00 0.00 51 1018.4
20240229032435 30 213 2.0 3.0 0.00 0.00 0.00 51 1018.3
20240229031935 30 215 3.0 5.0 0.00 0.00 0.00 51 1018.3
20240229031435 30 212 3.0 3.0 0.00 0.00 0.00 51 1018.4
20240229030934 31 206 3.0 3.0 0.00 0.00 0.00 48 1018.3
20240229030433 29 178 3.0 3.0 0.00 0.00 0.00 50 1018.4
20240229025933 30 215 1.0 3.0 0.00 0.00 0.00 48 1018.2
20240229025433 32 242 3.0 3.0 0.00 0.00 0.00 49 1018.4
20240229024932 33 191 0.0 0.0 0.00 0.00 0.00 43 1018.3
20240229024431 33 186 1.0 2.0 0.00 0.00 0.00 42 1018.3
20240229023930 34 164 2.0 2.0 0.00 0.00 0.00 41 1018.2
20240229023430 31 160 1.0 2.0 0.00 0.00 0.00 43 1018.2
20240229022929 32 153 2.0 3.0 0.00 0.00 0.00 46 1018.1
20240229022429 32 132 6.0 7.0 0.00 0.00 0.00 43 1018.4
20240229021928 34 181 0.0 0.0 0.00 0.00 0.00 41 1018.6
20240229021428 35 213 1.0 1.0 0.00 0.00 0.00 39 1018.7
20240229020928 35 229 1.0 2.0 0.00 0.00 0.00 38 1018.4
20240229020427 35 233 2.0 3.0 0.00 0.00 0.00 39 1018.4
20240229015925 34 208 2.0 2.0 0.00 0.00 0.00 40 1018.4
20240229015425 34 142 3.0 3.0 0.00 0.00 0.00 39 1018.2
20240229014925 34 159 2.0 2.0 0.00 0.00 0.00 40 1018.3
20240229014423 36 181 1.0 2.0 0.00 0.00 0.00 37 1018.4
20240229013922 37 205 2.0 3.0 0.00 0.00 0.00 35 1018.6
20240229013422 36 187 1.0 1.0 0.00 0.00 0.00 36 1018.4
20240229012921 35 186 0.0 0.0 0.00 0.00 0.00 38 1018.6
20240229012419 35 215 1.0 2.0 0.00 0.00 0.00 38 1018.7
20240229011918 35 241 3.0 3.0 0.00 0.00 0.00 41 1018.4
20240229011417 37 190 0.0 2.0 0.00 0.00 0.00 38 1018.3
20240229010915 37 190 4.0 5.0 0.00 0.00 0.00 36 1018.2
20240229010413 38 197 4.0 6.0 0.00 0.00 0.00 36 1018.3
20240229005912 38 213 7.0 9.0 0.00 0.00 0.00 36 1018.1
20240229005412 38 213 8.0 9.0 0.00 0.00 0.00 35 1018.1
20240229004912 39 212 7.0 9.0 0.00 0.00 0.00 35 1018.2
20240229004410 39 219 9.0 11.0 0.00 0.00 0.00 35 1018.2
20240229003909 39 221 8.0 9.0 0.00 0.00 0.00 35 1018.2
20240229003407 39 223 7.0 8.0 0.00 0.00 0.00 36 1018.3
20240229002905 41 216 5.0 6.0 0.00 0.00 0.00 35 1018.3
20240229002403 42 210 4.0 5.0 0.00 0.00 0.00 33 1018.0
20240229001903 43 193 4.0 6.0 0.00 0.00 0.00 32 1018.1
20240229001402 43 208 6.0 8.0 0.00 0.00 0.00 31 1018.3
20240229000902 44 189 5.0 10.0 0.00 0.00 0.00 30 1018.0
20240229000403 44 198 9.0 11.0 0.00 0.00 0.00 29 1018.1
20240228235859 45 208 6.0 10.0 0.00 0.00 0.00 29 1017.9
20240228235357 45 193 11.0 15.0 0.00 0.00 0.00 27 1017.6
20240228234857 45 224 8.0 10.0 0.00 0.00 0.00 28 1017.7
20240228234354 46 208 9.0 14.0 0.00 0.00 0.00 26 1018.0
20240228233852 46 211 11.0 13.0 0.00 0.00 0.00 26 1018.0
20240228233350 46 192 8.0 13.0 0.00 0.00 0.00 26 1018.1
20240228232850 46 215 9.0 13.0 0.00 0.00 0.00 26 1018.1
20240228232348 46 216 15.0 16.0 0.00 0.00 0.00 25 1018.1
20240228231847 46 221 13.0 15.0 0.00 0.00 0.00 25 1018.3
20240228231345 46 231 9.0 13.0 0.00 0.00 0.00 25 1018.3
20240228230843 46 231 12.0 14.0 0.00 0.00 0.00 25 1018.1
20240228230342 46 217 14.0 15.0 0.00 0.00 0.00 25 1018.2
20240228225841 47 236 7.0 13.0 0.00 0.00 0.00 25 1018.3
20240228225339 46 252 9.0 17.0 0.00 0.00 0.00 25 1018.4
20240228224839 46 233 11.0 16.0 0.00 0.00 0.00 25 1018.3
20240228224338 46 254 14.0 16.0 0.00 0.00 0.00 25 1018.4
20240228223838 46 219 16.0 18.0 0.00 0.00 0.00 25 1018.4
20240228223336 46 223 16.0 17.0 0.00 0.00 0.00 25 1018.7
20240228222835 47 219 11.0 17.0 0.00 0.00 0.00 25 1018.7
20240228222335 47 225 13.0 18.0 0.00 0.00 0.00 25 1018.6
20240228221833 47 237 11.0 17.0 0.00 0.00 0.00 26 1018.6
20240228221333 47 239 13.0 21.0 0.00 0.00 0.00 26 1018.4
20240228220831 48 235 9.0 25.0 0.00 0.00 0.00 25 1018.4
20240228220329 47 273 17.0 25.0 0.00 0.00 0.00 26 1018.3
20240228215827 47 278 19.0 25.0 0.00 0.00 0.00 25 1018.1
20240228215327 48 230 22.0 33.0 0.00 0.00 0.00 26 1018.2
20240228214825 48 235 17.0 27.0 0.00 0.00 0.00 26 1018.1
20240228214324 48 251 18.0 26.0 0.00 0.00 0.00 26 1018.3
20240228213824 48 277 20.0 31.0 0.00 0.00 0.00 26 1018.1
20240228213324 48 235 14.0 24.0 0.00 0.00 0.00 27 1018.0
20240228212823 48 277 12.0 23.0 0.00 0.00 0.00 26 1018.1
20240228212322 48 278 9.0 22.0 0.00 0.00 0.00 27 1018.6
20240228211822 47 261 9.0 21.0 0.00 0.00 0.00 27 1018.6
20240228211322 47 270 13.0 20.0 0.00 0.00 0.00 27 1018.6
20240228210820 47 267 13.0 22.0 0.00 0.00 0.00 27 1018.7
20240228210319 47 281 16.0 21.0 0.00 0.00 0.00 27 1018.4
20240228205820 47 247 12.0 17.0 0.00 0.00 0.00 27 1018.3
20240228205318 46 236 11.0 22.0 0.00 0.00 0.00 27 1018.4
20240228204816 47 268 18.0 24.0 0.00 0.00 0.00 26 1018.3
20240228204315 46 252 17.0 23.0 0.00 0.00 0.00 26 1018.8
20240228203813 46 284 17.0 23.0 0.00 0.00 0.00 26 1018.4
20240228203313 47 273 11.0 27.0 0.00 0.00 0.00 27 1018.9
20240228202812 46 251 15.0 18.0 0.00 0.00 0.00 27 1018.6
20240228202310 46 253 23.0 26.0 0.00 0.00 0.00 26 1018.8
20240228201809 46 260 17.0 22.0 0.00 0.00 0.00 27 1018.8
20240228201307 46 258 12.0 20.0 0.00 0.00 0.00 27 1018.7
20240228200807 45 243 14.0 22.0 0.00 0.00 0.00 27 1018.7
20240228200305 45 273 11.0 21.0 0.00 0.00 0.00 28 1018.8
20240228195805 45 270 11.0 18.0 0.00 0.00 0.00 28 1018.8
20240228195306 44 256 14.0 20.0 0.00 0.00 0.00 28 1019.1
20240228194803 44 269 15.0 20.0 0.00 0.00 0.00 28 1018.8
20240228194302 44 288 12.0 20.0 0.00 0.00 0.00 28 1019.3
20240228193801 44 245 17.0 21.0 0.00 0.00 0.00 29 1019.5
20240228193300 44 279 15.0 22.0 0.00 0.00 0.00 29 1019.3
20240228192758 43 272 14.0 21.0 0.00 0.00 0.00 30 1019.4
20240228192258 43 278 13.0 21.0 0.00 0.00 0.00 29 1019.1
20240228191757 42 252 13.0 25.0 0.00 0.00 0.00 30 1019.4
20240228191255 42 256 20.0 26.0 0.00 0.00 0.00 31 1018.9
20240228190753 42 253 21.0 32.0 0.00 0.00 0.00 30 1018.9
20240228190252 42 237 20.0 27.0 0.00 0.00 0.00 30 1018.9
20240228185751 42 298 19.0 26.0 0.00 0.00 0.00 32 1018.9
20240228185249 42 234 15.0 24.0 0.00 0.00 0.00 32 1019.1
20240228184748 41 260 13.0 24.0 0.00 0.00 0.00 32 1019.3
20240228184247 41 238 11.0 16.0 0.00 0.00 0.00 33 1019.4
20240228183745 41 278 15.0 24.0 0.00 0.00 0.00 31 1019.3
20240228183245 41 276 18.0 26.0 0.00 0.00 0.00 32 1019.1
20240228182745 41 258 16.0 20.0 0.00 0.00 0.00 33 1019.3
20240228182244 41 274 14.0 20.0 0.00 0.00 0.00 34 1019.5
20240228181744 40 258 10.0 22.0 0.00 0.00 0.00 34 1019.4
20240228181242 40 251 22.0 25.0 0.00 0.00 0.00 35 1019.4
20240228180741 39 224 11.0 20.0 0.00 0.00 0.00 35 1019.1
20240228180239 39 261 11.0 16.0 0.00 0.00 0.00 35 1019.4
20240228175737 39 227 12.0 20.0 0.00 0.00 0.00 34 1019.1
20240228175237 39 256 12.0 17.0 0.00 0.00 0.00 35 1019.4
20240228174736 39 240 13.0 17.0 0.00 0.00 0.00 35 1019.3
20240228174235 38 258 11.0 16.0 0.00 0.00 0.00 34 1019.1
20240228173735 38 215 11.0 17.0 0.00 0.00 0.00 36 1019.3
20240228173235 38 255 19.0 24.0 0.00 0.00 0.00 35 1019.0
20240228172735 38 267 14.0 16.0 0.00 0.00 0.00 35 1019.1
20240228172235 37 265 10.0 14.0 0.00 0.00 0.00 36 1019.3
20240228171734 37 242 13.0 17.0 0.00 0.00 0.00 36 1019.3
20240228171233 37 264 9.0 13.0 0.00 0.00 0.00 37 1019.0
20240228170733 36 284 10.0 14.0 0.00 0.00 0.00 38 1019.0
20240228170233 36 294 12.0 13.0 0.00 0.00 0.00 38 1019.1
20240228165732 35 297 15.0 16.0 0.00 0.00 0.00 36 1019.3
20240228165231 35 277 10.0 14.0 0.00 0.00 0.00 39 1019.0
20240228164730 35 228 10.0 16.0 0.00 0.00 0.00 37 1019.3
20240228164228 34 265 11.0 13.0 0.00 0.00 0.00 37 1019.4
20240228163727 34 248 8.0 13.0 0.00 0.00 0.00 38 1019.4
20240228163226 34 251 8.0 9.0 0.00 0.00 0.00 39 1019.5
20240228162725 33 239 5.0 6.0 0.00 0.00 0.00 39 1019.3
20240228162224 32 198 0.0 5.0 0.00 0.00 0.00 38 1019.4
20240228161723 31 190 2.0 8.0 0.00 0.00 0.00 38 1019.6
20240228161221 31 219 7.0 9.0 0.00 0.00 0.00 41 1019.3
20240228160721 30 217 7.0 9.0 0.00 0.00 0.00 39 1019.6
20240228160219 29 248 9.0 13.0 0.00 0.00 0.00 42 1019.7
20240228155719 29 234 10.0 14.0 0.00 0.00 0.00 44 1019.0
20240228155219 28 222 9.0 13.0 0.00 0.00 0.00 44 1019.3
20240228154718 30 234 7.0 9.0 0.00 0.00 0.00 46 1019.1
20240228154216 31 239 9.0 15.0 0.00 0.00 0.00 43 1019.3
20240228153715 29 257 10.0 11.0 0.00 0.00 0.00 46 1019.0
20240228153214 27 146 8.0 10.0 0.00 0.00 0.00 44 1018.9
20240228152713 27 162 6.0 10.0 0.00 0.00 0.00 43 1019.1
20240228152213 27 169 6.0 11.0 0.00 0.00 0.00 42 1018.9
20240228151711 26 169 7.0 10.0 0.00 0.00 0.00 43 1018.6
20240228151210 24 190 9.0 10.0 0.00 0.00 0.00 45 1018.8
20240228150710 24 214 7.0 11.0 0.00 0.00 0.00 48 1018.7
20240228150210 24 213 9.0 13.0 0.00 0.00 0.00 45 1018.9
20240228145709 24 230 9.0 11.0 0.00 0.00 0.00 45 1019.0
20240228145208 23 221 8.0 10.0 0.00 0.00 0.00 46 1018.7
20240228144707 23 223 11.0 11.0 0.00 0.00 0.00 46 1018.8
20240228144206 21 229 9.0 10.0 0.00 0.00 0.00 49 1018.9
20240228143705 22 198 6.0 8.0 0.00 0.00 0.00 49 1018.4
20240228143204 22 199 7.0 9.0 0.00 0.00 0.00 46 1018.6
20240228142703 20 196 5.0 9.0 0.00 0.00 0.00 46 1018.2
20240228142202 19 223 5.0 7.0 0.00 0.00 0.00 53 1018.2
20240228141702 19 231 6.0 7.0 0.00 0.00 0.00 54 1018.2
20240228141203 19 226 7.0 8.0 0.00 0.00 0.00 53 1018.2
20240228140703 18 220 10.0 16.0 0.00 0.00 0.00 51 1018.1
20240228140201 17 216 6.0 9.0 0.00 0.00 0.00 57 1018.0
20240228135700 18 199 8.0 9.0 0.00 0.00 0.00 54 1018.2
20240228135158 18 200 4.0 7.0 0.00 0.00 0.00 53 1018.0
20240228134657 19 221 6.0 8.0 0.00 0.00 0.00 54 1018.1
20240228134156 19 230 5.0 7.0 0.00 0.00 0.00 53 1018.0
20240228133656 19 240 7.0 9.0 0.00 0.00 0.00 54 1018.0
20240228133156 19 231 5.0 7.0 0.00 0.00 0.00 61 1017.7
20240228132654 21 243 8.0 10.0 0.00 0.00 0.00 54 1017.5
20240228132154 21 258 8.0 10.0 0.00 0.00 0.00 53 1017.6
20240228131653 21 251 9.0 13.0 0.00 0.00 0.00 53 1017.4
20240228131152 21 292 9.0 13.0 0.00 0.00 0.00 53 1017.9
20240228130650 21 270 9.0 13.0 0.00 0.00 0.00 53 1017.3
20240228130150 21 249 9.0 16.0 0.00 0.00 0.00 53 1017.5
20240228125649 21 245 9.0 11.0 0.00 0.00 0.00 53 1017.4
20240228125148 21 262 12.0 15.0 0.00 0.00 0.00 54 1017.3
20240228124647 20 252 9.0 11.0 0.00 0.00 0.00 55 1017.1
20240228124146 20 291 9.0 16.0 0.00 0.00 0.00 56 1017.4
20240228123647 19 271 9.0 13.0 0.00 0.00 0.00 56 1017.1
20240228123146 19 262 6.0 8.0 0.00 0.00 0.00 58 1017.1
20240228122645 19 274 7.0 9.0 0.00 0.00 0.00 59 1017.1
20240228122144 18 245 7.0 9.0 0.00 0.00 0.00 59 1017.1
20240228121643 16 248 5.0 8.0 0.00 0.00 0.00 62 1017.3
20240228121142 17 258 3.0 5.0 0.00 0.00 0.00 63 1017.6
20240228120641 18 294 4.0 6.0 0.00 0.00 0.00 61 1017.4
20240228120141 18 263 4.0 6.0 0.00 0.00 0.00 61 1017.4
20240228115639 18 267 4.0 7.0 0.00 0.00 0.00 60 1017.5
20240228115139 18 255 5.0 9.0 0.00 0.00 0.00 59 1017.5
20240228114638 17 288 6.0 9.0 0.00 0.00 0.00 59 1017.4
20240228114137 16 275 6.0 8.0 0.00 0.00 0.00 61 1017.3
20240228113635 15 279 9.0 10.0 0.00 0.00 0.00 62 1017.4
20240228113135 14 304 7.0 9.0 0.00 0.00 0.00 65 1017.4
20240228112635 14 284 7.0 9.0 0.00 0.00 0.00 65 1017.3
20240228112133 14 308 6.0 7.0 0.00 0.00 0.00 65 1017.1
20240228111633 13 287 3.0 6.0 0.00 0.00 0.00 68 1017.3
20240228111131 13 290 5.0 6.0 0.00 0.00 0.00 68 1017.1
20240228110629 13 222 2.0 3.0 0.00 0.00 0.00 67 1017.0
20240228110129 13 222 2.0 3.0 0.00 0.00 0.00 67 1016.8
20240228105629 14 263 3.0 6.0 0.00 0.00 0.00 67 1017.0